sensor_id;sensor_type;location;lat;lon;timestamp;P1;P2;P0
77692;PMS5003;66984;47.404;18.836;2023-03-29T00:01:01;0.00;0.00;0.00
77692;PMS5003;66984;47.404;18.836;2023-03-29T00:02:04;0.00;0.00;0.00
77692;PMS5003;66984;47.404;18.836;2023-03-29T00:03:09;0.00;0.00;0.00
77692;PMS5003;66984;47.404;18.836;2023-03-29T00:04:12;1.00;0.00;0.00
77692;PMS5003;66984;47.404;18.836;2023-03-29T00:05:15;0.75;0.75;0.00
77692;PMS5003;66984;47.404;18.836;2023-03-29T00:06:20;0.00;0.00;0.00
77692;PMS5003;66984;47.404;18.836;2023-03-29T00:07:23;0.00;0.00;0.00
77692;PMS5003;66984;47.404;18.836;2023-03-29T00:08:31;1.75;1.75;0.00
77692;PMS5003;66984;47.404;18.836;2023-03-29T00:09:35;1.00;1.00;0.00
77692;PMS5003;66984;47.404;18.836;2023-03-29T00:10:38;1.00;1.00;0.00
77692;PMS5003;66984;47.404;18.836;2023-03-29T00:11:41;0.00;0.00;0.00
77692;PMS5003;66984;47.404;18.836;2023-03-29T00:12:44;1.00;1.00;0.00
77692;PMS5003;66984;47.404;18.836;2023-03-29T00:13:50;0.00;0.00;0.00
77692;PMS5003;66984;47.404;18.836;2023-03-29T00:14:53;0.00;0.00;0.00
77692;PMS5003;66984;47.404;18.836;2023-03-29T00:15:56;1.00;0.00;0.00
77692;PMS5003;66984;47.404;18.836;2023-03-29T00:16:59;0.00;0.00;0.00
77692;PMS5003;66984;47.404;18.836;2023-03-29T00:18:02;0.00;0.00;0.00
77692;PMS5003;66984;47.404;18.836;2023-03-29T00:19:05;0.00;0.00;0.00
77692;PMS5003;66984;47.404;18.836;2023-03-29T00:20:08;0.00;0.00;0.00
77692;PMS5003;66984;47.404;18.836;2023-03-29T00:21:12;1.00;1.00;0.00
77692;PMS5003;66984;47.404;18.836;2023-03-29T00:22:14;0.75;0.75;0.00
77692;PMS5003;66984;47.404;18.836;2023-03-29T00:23:17;0.75;0.75;0.00
77692;PMS5003;66984;47.404;18.836;2023-03-29T00:24:20;0.25;0.25;0.00
77692;PMS5003;66984;47.404;18.836;2023-03-29T00:25:25;0.00;0.00;0.00
77692;PMS5003;66984;47.404;18.836;2023-03-29T00:26:28;1.50;1.00;0.00
77692;PMS5003;66984;47.404;18.836;2023-03-29T00:27:31;0.00;0.00;0.00
77692;PMS5003;66984;47.404;18.836;2023-03-29T00:28:34;0.25;0.25;0.00
77692;PMS5003;66984;47.404;18.836;2023-03-29T00:29:37;1.00;1.00;0.00
77692;PMS5003;66984;47.404;18.836;2023-03-29T00:30:40;1.00;1.00;0.00
77692;PMS5003;66984;47.404;18.836;2023-03-29T00:31:43;1.25;1.00;0.00
77692;PMS5003;66984;47.404;18.836;2023-03-29T00:32:53;0.00;0.00;0.00
77692;PMS5003;66984;47.404;18.836;2023-03-29T00:33:55;0.75;0.75;0.00
77692;PMS5003;66984;47.404;18.836;2023-03-29T00:34:59;1.00;1.00;0.00
77692;PMS5003;66984;47.404;18.836;2023-03-29T00:36:07;0.00;0.00;0.00
77692;PMS5003;66984;47.404;18.836;2023-03-29T00:37:11;2.00;2.00;0.00
77692;PMS5003;66984;47.404;18.836;2023-03-29T00:38:16;1.25;1.00;0.00
77692;PMS5003;66984;47.404;18.836;2023-03-29T00:39:19;0.00;0.00;0.00
77692;PMS5003;66984;47.404;18.836;2023-03-29T00:40:22;0.00;0.00;0.00
77692;PMS5003;66984;47.404;18.836;2023-03-29T00:41:25;0.00;0.00;0.00
77692;PMS5003;66984;47.404;18.836;2023-03-29T00:42:28;0.00;0.00;0.00
77692;PMS5003;66984;47.404;18.836;2023-03-29T00:43:49;0.00;0.00;0.00
77692;PMS5003;66984;47.404;18.836;2023-03-29T00:46:11;2.00;1.00;0.00
77692;PMS5003;66984;47.404;18.836;2023-03-29T00:47:15;2.00;1.00;0.00
77692;PMS5003;66984;47.404;18.836;2023-03-29T00:48:20;2.00;2.00;0.00
77692;PMS5003;66984;47.404;18.836;2023-03-29T00:49:28;0.00;0.00;0.00
77692;PMS5003;66984;47.404;18.836;2023-03-29T00:50:32;1.00;1.00;0.00
77692;PMS5003;66984;47.404;18.836;2023-03-29T00:51:40;3.00;2.00;0.00
77692;PMS5003;66984;47.404;18.836;2023-03-29T00:52:45;2.00;1.50;0.00
77692;PMS5003;66984;47.404;18.836;2023-03-29T00:53:54;1.00;0.00;0.00
77692;PMS5003;66984;47.404;18.836;2023-03-29T00:55:01;1.25;0.00;0.00
77692;PMS5003;66984;47.404;18.836;2023-03-29T00:56:18;1.00;1.00;0.00
77692;PMS5003;66984;47.404;18.836;2023-03-29T00:57:26;0.00;0.00;0.00
77692;PMS5003;66984;47.404;18.836;2023-03-29T00:58:41;0.00;0.00;0.00
77692;PMS5003;66984;47.404;18.836;2023-03-29T00:59:49;0.00;0.00;0.00
77692;PMS5003;66984;47.404;18.836;2023-03-29T01:00:55;1.00;0.00;0.00
77692;PMS5003;66984;47.404;18.836;2023-03-29T01:02:04;1.00;1.00;0.00
77692;PMS5003;66984;47.404;18.836;2023-03-29T01:03:09;0.50;0.50;0.00
77692;PMS5003;66984;47.404;18.836;2023-03-29T01:05:32;1.00;0.00;0.00
77692;PMS5003;66984;47.404;18.836;2023-03-29T01:06:40;1.00;0.00;0.00
77692;PMS5003;66984;47.404;18.836;2023-03-29T01:07:46;2.25;0.00;0.00
77692;PMS5003;66984;47.404;18.836;2023-03-29T01:09:00;1.00;1.00;0.00
77692;PMS5003;66984;47.404;18.836;2023-03-29T01:10:11;0.00;0.00;0.00
77692;PMS5003;66984;47.404;18.836;2023-03-29T01:11:24;1.00;1.00;0.00
77692;PMS5003;66984;47.404;18.836;2023-03-29T01:12:31;1.00;1.00;0.00
77692;PMS5003;66984;47.404;18.836;2023-03-29T01:14:58;1.00;1.00;0.00
77692;PMS5003;66984;47.404;18.836;2023-03-29T01:16:08;2.00;2.00;0.00
77692;PMS5003;66984;47.404;18.836;2023-03-29T01:17:13;0.00;0.00;0.00
77692;PMS5003;66984;47.404;18.836;2023-03-29T01:18:17;0.00;0.00;0.00
77692;PMS5003;66984;47.404;18.836;2023-03-29T01:19:23;0.00;0.00;0.00
77692;PMS5003;66984;47.404;18.836;2023-03-29T01:22:29;0.00;0.00;0.00
77692;PMS5003;66984;47.404;18.836;2023-03-29T01:30:10;2.00;0.50;0.00
77692;PMS5003;66984;47.404;18.836;2023-03-29T01:31:20;2.00;1.50;0.00
77692;PMS5003;66984;47.404;18.836;2023-03-29T01:32:40;2.50;2.00;0.00
77692;PMS5003;66984;47.404;18.836;2023-03-29T01:33:51;4.00;2.50;0.00
77692;PMS5003;66984;47.404;18.836;2023-03-29T01:35:03;2.50;2.50;0.00
77692;PMS5003;66984;47.404;18.836;2023-03-29T01:37:30;1.25;1.25;0.00
77692;PMS5003;66984;47.404;18.836;2023-03-29T01:38:41;2.00;2.00;0.00
77692;PMS5003;66984;47.404;18.836;2023-03-29T01:39:51;2.00;2.00;0.00
77692;PMS5003;66984;47.404;18.836;2023-03-29T01:40:54;1.00;1.00;0.00
77692;PMS5003;66984;47.404;18.836;2023-03-29T01:43:10;2.00;2.00;0.00
77692;PMS5003;66984;47.404;18.836;2023-03-29T01:44:28;1.00;1.00;0.00
77692;PMS5003;66984;47.404;18.836;2023-03-29T01:45:44;2.50;2.00;0.00
77692;PMS5003;66984;47.404;18.836;2023-03-29T01:46:54;3.00;2.00;0.00
77692;PMS5003;66984;47.404;18.836;2023-03-29T01:49:21;2.50;2.25;0.00
77692;PMS5003;66984;47.404;18.836;2023-03-29T01:51:36;1.00;1.00;0.00
77692;PMS5003;66984;47.404;18.836;2023-03-29T01:52:53;2.00;2.00;0.00
77692;PMS5003;66984;47.404;18.836;2023-03-29T01:54:06;2.00;2.00;0.00
77692;PMS5003;66984;47.404;18.836;2023-03-29T01:55:21;2.75;2.00;0.00
77692;PMS5003;66984;47.404;18.836;2023-03-29T01:56:27;3.00;3.00;0.00
77692;PMS5003;66984;47.404;18.836;2023-03-29T01:57:32;2.00;2.00;0.00
77692;PMS5003;66984;47.404;18.836;2023-03-29T01:58:41;2.50;2.00;0.00
77692;PMS5003;66984;47.404;18.836;2023-03-29T01:59:46;2.50;2.50;0.00
77692;PMS5003;66984;47.404;18.836;2023-03-29T02:00:50;1.25;1.25;0.00
77692;PMS5003;66984;47.404;18.836;2023-03-29T02:01:57;3.00;3.00;0.00
77692;PMS5003;66984;47.404;18.836;2023-03-29T02:03:03;2.00;2.00;0.00
77692;PMS5003;66984;47.404;18.836;2023-03-29T02:04:10;2.00;2.00;0.00
77692;PMS5003;66984;47.404;18.836;2023-03-29T02:05:15;1.00;1.00;0.00
77692;PMS5003;66984;47.404;18.836;2023-03-29T02:06:20;1.00;1.00;0.00
77692;PMS5003;66984;47.404;18.836;2023-03-29T02:07:25;1.00;1.00;0.00
77692;PMS5003;66984;47.404;18.836;2023-03-29T02:08:32;1.00;1.00;0.00
77692;PMS5003;66984;47.404;18.836;2023-03-29T02:09:35;2.00;2.00;0.00
77692;PMS5003;66984;47.404;18.836;2023-03-29T02:10:40;2.50;2.50;0.00
77692;PMS5003;66984;47.404;18.836;2023-03-29T02:11:43;1.50;1.50;0.00
77692;PMS5003;66984;47.404;18.836;2023-03-29T02:12:47;1.75;1.75;0.00
77692;PMS5003;66984;47.404;18.836;2023-03-29T02:13:50;1.00;1.00;0.00
77692;PMS5003;66984;47.404;18.836;2023-03-29T02:14:53;2.50;2.50;0.00
77692;PMS5003;66984;47.404;18.836;2023-03-29T02:15:57;2.50;2.50;0.00
77692;PMS5003;66984;47.404;18.836;2023-03-29T02:17:14;5.00;4.00;0.00
77692;PMS5003;66984;47.404;18.836;2023-03-29T02:18:19;4.00;4.00;1.00
77692;PMS5003;66984;47.404;18.836;2023-03-29T02:19:22;4.00;4.00;2.00
77692;PMS5003;66984;47.404;18.836;2023-03-29T02:20:37;5.50;5.00;2.50
77692;PMS5003;66984;47.404;18.836;2023-03-29T02:21:44;4.00;4.00;2.00
77692;PMS5003;66984;47.404;18.836;2023-03-29T02:22:55;4.25;3.25;2.00
77692;PMS5003;66984;47.404;18.836;2023-03-29T02:24:04;2.00;2.00;1.00
77692;PMS5003;66984;47.404;18.836;2023-03-29T02:25:10;4.00;2.50;0.25
77692;PMS5003;66984;47.404;18.836;2023-03-29T02:26:14;1.75;1.75;1.00
77692;PMS5003;66984;47.404;18.836;2023-03-29T02:27:19;3.00;3.00;1.00
77692;PMS5003;66984;47.404;18.836;2023-03-29T02:28:22;3.00;2.50;1.00
77692;PMS5003;66984;47.404;18.836;2023-03-29T02:29:26;2.00;2.00;0.00
77692;PMS5003;66984;47.404;18.836;2023-03-29T02:30:31;2.00;2.00;0.00
77692;PMS5003;66984;47.404;18.836;2023-03-29T02:31:56;2.00;1.50;0.00
77692;PMS5003;66984;47.404;18.836;2023-03-29T02:33:08;2.00;2.00;0.00
77692;PMS5003;66984;47.404;18.836;2023-03-29T02:34:38;2.00;2.00;0.00
77692;PMS5003;66984;47.404;18.836;2023-03-29T02:35:51;1.50;1.50;0.00
77692;PMS5003;66984;47.404;18.836;2023-03-29T02:37:08;2.00;2.00;0.00
77692;PMS5003;66984;47.404;18.836;2023-03-29T02:38:13;3.00;3.00;0.00
77692;PMS5003;66984;47.404;18.836;2023-03-29T02:39:18;3.00;3.00;0.00
77692;PMS5003;66984;47.404;18.836;2023-03-29T02:40:23;4.00;3.00;0.00
77692;PMS5003;66984;47.404;18.836;2023-03-29T02:41:27;4.00;4.00;0.00
77692;PMS5003;66984;47.404;18.836;2023-03-29T02:42:30;6.00;5.75;1.00
77692;PMS5003;66984;47.404;18.836;2023-03-29T02:43:33;5.00;5.00;2.00
77692;PMS5003;66984;47.404;18.836;2023-03-29T02:44:38;5.50;5.00;2.00
77692;PMS5003;66984;47.404;18.836;2023-03-29T02:45:43;5.25;5.00;2.00
77692;PMS5003;66984;47.404;18.836;2023-03-29T02:46:52;5.00;5.00;2.00
77692;PMS5003;66984;47.404;18.836;2023-03-29T02:48:04;7.75;6.75;4.00
77692;PMS5003;66984;47.404;18.836;2023-03-29T02:49:10;11.00;10.50;5.00
77692;PMS5003;66984;47.404;18.836;2023-03-29T02:50:13;13.00;12.00;5.00
77692;PMS5003;66984;47.404;18.836;2023-03-29T02:51:18;12.00;12.00;5.00
77692;PMS5003;66984;47.404;18.836;2023-03-29T02:52:24;12.00;12.00;5.00
77692;PMS5003;66984;47.404;18.836;2023-03-29T02:53:45;12.25;12.25;5.25
77692;PMS5003;66984;47.404;18.836;2023-03-29T02:54:53;11.00;11.00;4.75
77692;PMS5003;66984;47.404;18.836;2023-03-29T02:55:57;11.50;10.00;5.00
77692;PMS5003;66984;47.404;18.836;2023-03-29T02:57:03;13.00;11.00;5.00
77692;PMS5003;66984;47.404;18.836;2023-03-29T02:58:10;11.00;10.00;4.00
77692;PMS5003;66984;47.404;18.836;2023-03-29T02:59:15;11.00;9.50;4.75
77692;PMS5003;66984;47.404;18.836;2023-03-29T03:00:20;7.75;7.00;4.00
77692;PMS5003;66984;47.404;18.836;2023-03-29T03:01:24;7.00;6.00;2.00
77692;PMS5003;66984;47.404;18.836;2023-03-29T03:02:27;5.00;5.00;3.00
77692;PMS5003;66984;47.404;18.836;2023-03-29T03:03:31;5.50;5.00;3.00
77692;PMS5003;66984;47.404;18.836;2023-03-29T03:04:34;6.00;5.50;2.00
77692;PMS5003;66984;47.404;18.836;2023-03-29T03:05:37;5.00;5.00;2.00
77692;PMS5003;66984;47.404;18.836;2023-03-29T03:06:40;4.00;4.00;3.00
77692;PMS5003;66984;47.404;18.836;2023-03-29T03:07:43;3.25;3.25;2.00
77692;PMS5003;66984;47.404;18.836;2023-03-29T03:08:47;5.00;5.00;2.00
77692;PMS5003;66984;47.404;18.836;2023-03-29T03:09:50;4.00;4.00;2.00
77692;PMS5003;66984;47.404;18.836;2023-03-29T03:10:53;5.00;5.00;1.00
77692;PMS5003;66984;47.404;18.836;2023-03-29T03:11:56;4.00;3.00;2.00
77692;PMS5003;66984;47.404;18.836;2023-03-29T03:12:59;4.25;4.25;2.00
77692;PMS5003;66984;47.404;18.836;2023-03-29T03:14:02;3.25;3.00;2.00
77692;PMS5003;66984;47.404;18.836;2023-03-29T03:15:08;5.00;5.00;2.00
77692;PMS5003;66984;47.404;18.836;2023-03-29T03:16:12;5.00;4.00;2.00
77692;PMS5003;66984;47.404;18.836;2023-03-29T03:17:14;3.00;3.00;2.00
77692;PMS5003;66984;47.404;18.836;2023-03-29T03:18:20;5.00;5.00;2.00
77692;PMS5003;66984;47.404;18.836;2023-03-29T03:19:23;7.75;7.75;3.00
77692;PMS5003;66984;47.404;18.836;2023-03-29T03:20:26;8.00;8.00;4.75
77692;PMS5003;66984;47.404;18.836;2023-03-29T03:21:29;10.50;9.50;4.00
77692;PMS5003;66984;47.404;18.836;2023-03-29T03:22:32;10.25;10.25;5.00
77692;PMS5003;66984;47.404;18.836;2023-03-29T03:23:36;13.00;11.50;5.00
77692;PMS5003;66984;47.404;18.836;2023-03-29T03:24:39;12.75;10.75;5.00
77692;PMS5003;66984;47.404;18.836;2023-03-29T03:25:43;11.00;10.00;6.00
77692;PMS5003;66984;47.404;18.836;2023-03-29T03:26:46;12.25;11.00;5.00
77692;PMS5003;66984;47.404;18.836;2023-03-29T03:27:49;14.00;12.00;6.00
77692;PMS5003;66984;47.404;18.836;2023-03-29T03:28:52;14.50;13.50;7.00
77692;PMS5003;66984;47.404;18.836;2023-03-29T03:29:56;14.00;13.00;6.00
77692;PMS5003;66984;47.404;18.836;2023-03-29T03:30:59;14.00;13.50;5.00
77692;PMS5003;66984;47.404;18.836;2023-03-29T03:32:04;14.00;14.00;5.00
77692;PMS5003;66984;47.404;18.836;2023-03-29T03:33:08;14.00;14.00;5.50
77692;PMS5003;66984;47.404;18.836;2023-03-29T03:34:11;13.00;12.00;5.00
77692;PMS5003;66984;47.404;18.836;2023-03-29T03:35:14;13.00;11.00;6.00
77692;PMS5003;66984;47.404;18.836;2023-03-29T03:36:17;14.00;11.00;5.00
77692;PMS5003;66984;47.404;18.836;2023-03-29T03:37:20;14.00;13.00;7.00
77692;PMS5003;66984;47.404;18.836;2023-03-29T03:38:23;11.00;11.00;5.00
77692;PMS5003;66984;47.404;18.836;2023-03-29T03:39:26;11.00;11.00;5.00
77692;PMS5003;66984;47.404;18.836;2023-03-29T03:40:29;12.00;11.00;4.00
77692;PMS5003;66984;47.404;18.836;2023-03-29T03:41:33;11.00;9.00;5.00
77692;PMS5003;66984;47.404;18.836;2023-03-29T03:42:37;9.75;8.00;5.00
77692;PMS5003;66984;47.404;18.836;2023-03-29T03:43:41;9.00;9.00;5.00
77692;PMS5003;66984;47.404;18.836;2023-03-29T03:44:47;11.00;10.00;4.00
77692;PMS5003;66984;47.404;18.836;2023-03-29T03:45:51;11.00;10.25;5.00
77692;PMS5003;66984;47.404;18.836;2023-03-29T03:46:54;12.00;11.00;5.75
77692;PMS5003;66984;47.404;18.836;2023-03-29T03:47:57;11.00;10.00;5.00
77692;PMS5003;66984;47.404;18.836;2023-03-29T03:49:00;11.00;9.00;4.50
77692;PMS5003;66984;47.404;18.836;2023-03-29T03:50:03;11.00;10.50;5.00
77692;PMS5003;66984;47.404;18.836;2023-03-29T03:51:07;13.00;11.00;5.00
77692;PMS5003;66984;47.404;18.836;2023-03-29T03:52:10;13.00;11.00;5.00
77692;PMS5003;66984;47.404;18.836;2023-03-29T03:53:14;12.00;10.00;5.00
77692;PMS5003;66984;47.404;18.836;2023-03-29T03:54:17;8.00;5.50;3.00
77692;PMS5003;66984;47.404;18.836;2023-03-29T03:55:20;5.00;5.00;2.00
77692;PMS5003;66984;47.404;18.836;2023-03-29T03:56:23;6.00;5.00;2.00
77692;PMS5003;66984;47.404;18.836;2023-03-29T03:57:27;4.25;4.25;2.00
77692;PMS5003;66984;47.404;18.836;2023-03-29T03:58:30;4.75;4.50;2.00
77692;PMS5003;66984;47.404;18.836;2023-03-29T03:59:33;5.25;5.00;3.00
77692;PMS5003;66984;47.404;18.836;2023-03-29T04:00:36;4.00;4.00;2.00
77692;PMS5003;66984;47.404;18.836;2023-03-29T04:01:39;4.25;4.25;2.00
77692;PMS5003;66984;47.404;18.836;2023-03-29T04:02:45;3.50;3.50;2.00
77692;PMS5003;66984;47.404;18.836;2023-03-29T04:03:49;5.00;5.00;2.00
77692;PMS5003;66984;47.404;18.836;2023-03-29T04:04:52;10.75;10.50;5.00
77692;PMS5003;66984;47.404;18.836;2023-03-29T04:05:58;14.50;13.75;6.50
77692;PMS5003;66984;47.404;18.836;2023-03-29T04:07:02;20.50;19.00;11.00
77692;PMS5003;66984;47.404;18.836;2023-03-29T04:08:05;23.50;22.00;14.00
77692;PMS5003;66984;47.404;18.836;2023-03-29T04:09:08;24.00;22.50;14.00
77692;PMS5003;66984;47.404;18.836;2023-03-29T04:10:11;25.00;22.00;14.00
77692;PMS5003;66984;47.404;18.836;2023-03-29T04:11:14;24.00;22.00;14.00
77692;PMS5003;66984;47.404;18.836;2023-03-29T04:12:17;20.25;19.00;13.00
77692;PMS5003;66984;47.404;18.836;2023-03-29T04:13:20;20.00;19.00;13.00
77692;PMS5003;66984;47.404;18.836;2023-03-29T04:14:24;18.00;17.00;12.00
77692;PMS5003;66984;47.404;18.836;2023-03-29T04:15:28;17.50;16.50;11.00
77692;PMS5003;66984;47.404;18.836;2023-03-29T04:16:31;17.00;16.50;11.00
77692;PMS5003;66984;47.404;18.836;2023-03-29T04:17:34;17.00;16.00;9.75
77692;PMS5003;66984;47.404;18.836;2023-03-29T04:18:37;16.75;15.00;9.00
77692;PMS5003;66984;47.404;18.836;2023-03-29T04:19:40;20.50;19.50;10.75
77692;PMS5003;66984;47.404;18.836;2023-03-29T04:20:43;22.75;21.50;12.00
77692;PMS5003;66984;47.404;18.836;2023-03-29T04:21:46;24.75;23.00;14.00
77692;PMS5003;66984;47.404;18.836;2023-03-29T04:22:50;25.00;23.50;14.00
77692;PMS5003;66984;47.404;18.836;2023-03-29T04:23:54;27.00;24.50;15.25
77692;PMS5003;66984;47.404;18.836;2023-03-29T04:24:57;28.00;24.75;16.00
77692;PMS5003;66984;47.404;18.836;2023-03-29T04:25:59;30.50;25.00;16.50
77692;PMS5003;66984;47.404;18.836;2023-03-29T04:27:02;31.50;25.50;16.50
77692;PMS5003;66984;47.404;18.836;2023-03-29T04:28:05;31.00;27.00;17.00
77692;PMS5003;66984;47.404;18.836;2023-03-29T04:29:09;31.75;27.25;19.00
77692;PMS5003;66984;47.404;18.836;2023-03-29T04:30:12;34.00;28.00;19.50
77692;PMS5003;66984;47.404;18.836;2023-03-29T04:31:15;34.00;29.00;19.50
77692;PMS5003;66984;47.404;18.836;2023-03-29T04:32:18;36.50;30.50;19.50
77692;PMS5003;66984;47.404;18.836;2023-03-29T04:33:21;36.50;30.00;19.50
77692;PMS5003;66984;47.404;18.836;2023-03-29T04:34:24;37.75;31.50;21.00
77692;PMS5003;66984;47.404;18.836;2023-03-29T04:35:27;40.25;32.75;21.00
77692;PMS5003;66984;47.404;18.836;2023-03-29T04:36:31;40.00;33.25;22.00
77692;PMS5003;66984;47.404;18.836;2023-03-29T04:37:34;44.00;35.00;22.50
77692;PMS5003;66984;47.404;18.836;2023-03-29T04:38:38;47.00;37.50;25.00
77692;PMS5003;66984;47.404;18.836;2023-03-29T04:39:48;47.00;38.00;25.00
77692;PMS5003;66984;47.404;18.836;2023-03-29T04:40:51;46.00;38.00;25.00
77692;PMS5003;66984;47.404;18.836;2023-03-29T04:41:56;47.50;38.50;25.00
77692;PMS5003;66984;47.404;18.836;2023-03-29T04:42:59;49.00;38.75;25.25
77692;PMS5003;66984;47.404;18.836;2023-03-29T04:44:03;51.00;42.00;26.00
77692;PMS5003;66984;47.404;18.836;2023-03-29T04:45:08;48.00;37.75;25.00
77692;PMS5003;66984;47.404;18.836;2023-03-29T04:46:13;45.00;36.75;24.00
77692;PMS5003;66984;47.404;18.836;2023-03-29T04:47:16;45.00;36.00;23.00
77692;PMS5003;66984;47.404;18.836;2023-03-29T04:48:19;42.25;35.00;22.50
77692;PMS5003;66984;47.404;18.836;2023-03-29T04:49:23;43.25;34.00;22.50
77692;PMS5003;66984;47.404;18.836;2023-03-29T04:50:26;41.00;32.00;21.00
77692;PMS5003;66984;47.404;18.836;2023-03-29T04:51:30;38.00;31.00;20.50
77692;PMS5003;66984;47.404;18.836;2023-03-29T04:52:33;36.75;31.00;21.00
77692;PMS5003;66984;47.404;18.836;2023-03-29T04:53:36;36.00;30.75;19.50
77692;PMS5003;66984;47.404;18.836;2023-03-29T04:54:41;38.00;31.00;20.00
77692;PMS5003;66984;47.404;18.836;2023-03-29T04:55:45;37.25;31.00;19.50
77692;PMS5003;66984;47.404;18.836;2023-03-29T04:56:48;37.00;30.00;20.00
77692;PMS5003;66984;47.404;18.836;2023-03-29T04:57:53;34.00;28.00;19.00
77692;PMS5003;66984;47.404;18.836;2023-03-29T04:58:56;34.00;28.00;17.00
77692;PMS5003;66984;47.404;18.836;2023-03-29T04:59:59;31.00;27.00;17.00
77692;PMS5003;66984;47.404;18.836;2023-03-29T05:01:02;31.00;27.00;17.00
77692;PMS5003;66984;47.404;18.836;2023-03-29T05:02:05;29.25;25.50;17.00
77692;PMS5003;66984;47.404;18.836;2023-03-29T05:03:08;29.00;25.50;17.00
77692;PMS5003;66984;47.404;18.836;2023-03-29T05:04:14;31.00;26.00;17.00
77692;PMS5003;66984;47.404;18.836;2023-03-29T05:05:19;30.50;25.75;17.00
77692;PMS5003;66984;47.404;18.836;2023-03-29T05:06:22;28.50;25.50;17.00
77692;PMS5003;66984;47.404;18.836;2023-03-29T05:07:25;29.00;25.50;17.00
77692;PMS5003;66984;47.404;18.836;2023-03-29T05:08:28;33.50;26.75;18.25
77692;PMS5003;66984;47.404;18.836;2023-03-29T05:09:31;37.50;30.00;19.00
77692;PMS5003;66984;47.404;18.836;2023-03-29T05:10:35;37.25;31.00;20.00
77692;PMS5003;66984;47.404;18.836;2023-03-29T05:11:38;40.00;32.00;20.00
77692;PMS5003;66984;47.404;18.836;2023-03-29T05:12:41;43.00;34.50;22.75
77692;PMS5003;66984;47.404;18.836;2023-03-29T05:13:44;48.75;39.50;25.00
77692;PMS5003;66984;47.404;18.836;2023-03-29T05:14:47;48.00;38.00;25.00
77692;PMS5003;66984;47.404;18.836;2023-03-29T05:15:50;45.75;37.00;24.00
77692;PMS5003;66984;47.404;18.836;2023-03-29T05:16:53;43.00;34.50;23.00
77692;PMS5003;66984;47.404;18.836;2023-03-29T05:17:56;41.00;33.00;22.00
77692;PMS5003;66984;47.404;18.836;2023-03-29T05:19:00;37.00;31.00;20.00
77692;PMS5003;66984;47.404;18.836;2023-03-29T05:20:03;36.00;30.00;19.00
77692;PMS5003;66984;47.404;18.836;2023-03-29T05:21:11;34.50;28.50;19.25
77692;PMS5003;66984;47.404;18.836;2023-03-29T05:22:14;35.00;29.00;20.00
77692;PMS5003;66984;47.404;18.836;2023-03-29T05:23:18;37.50;31.50;20.00
77692;PMS5003;66984;47.404;18.836;2023-03-29T05:24:21;43.25;34.50;23.00
77692;PMS5003;66984;47.404;18.836;2023-03-29T05:25:24;49.50;40.25;25.25
77692;PMS5003;66984;47.404;18.836;2023-03-29T05:26:27;50.75;42.00;26.00
77692;PMS5003;66984;47.404;18.836;2023-03-29T05:27:31;49.50;40.00;26.00
77692;PMS5003;66984;47.404;18.836;2023-03-29T05:28:34;46.00;38.00;24.00
77692;PMS5003;66984;47.404;18.836;2023-03-29T05:29:37;43.50;35.00;23.00
77692;PMS5003;66984;47.404;18.836;2023-03-29T05:30:40;41.00;34.00;22.00
77692;PMS5003;66984;47.404;18.836;2023-03-29T05:31:44;41.00;33.00;21.00
77692;PMS5003;66984;47.404;18.836;2023-03-29T05:32:49;40.50;32.00;21.00
77692;PMS5003;66984;47.404;18.836;2023-03-29T05:33:52;38.00;32.00;20.00
77692;PMS5003;66984;47.404;18.836;2023-03-29T05:34:55;41.00;32.00;21.00
77692;PMS5003;66984;47.404;18.836;2023-03-29T05:36:02;42.00;34.00;23.00
77692;PMS5003;66984;47.404;18.836;2023-03-29T05:37:09;41.00;34.00;22.50
77692;PMS5003;66984;47.404;18.836;2023-03-29T05:38:12;43.00;34.50;22.00
77692;PMS5003;66984;47.404;18.836;2023-03-29T05:39:15;42.00;34.00;21.00
77692;PMS5003;66984;47.404;18.836;2023-03-29T05:40:18;45.75;36.50;23.50
77692;PMS5003;66984;47.404;18.836;2023-03-29T05:41:21;47.50;38.00;24.00
77692;PMS5003;66984;47.404;18.836;2023-03-29T05:42:25;42.75;34.00;21.75
77692;PMS5003;66984;47.404;18.836;2023-03-29T05:43:28;39.00;32.50;20.50
77692;PMS5003;66984;47.404;18.836;2023-03-29T05:44:32;38.00;31.50;21.00
77692;PMS5003;66984;47.404;18.836;2023-03-29T05:45:35;37.25;30.50;20.50
77692;PMS5003;66984;47.404;18.836;2023-03-29T05:46:38;38.50;32.00;20.50
77692;PMS5003;66984;47.404;18.836;2023-03-29T05:47:41;37.75;32.00;20.00
77692;PMS5003;66984;47.404;18.836;2023-03-29T05:48:44;39.00;32.00;21.00
77692;PMS5003;66984;47.404;18.836;2023-03-29T05:49:47;39.00;32.50;20.50
77692;PMS5003;66984;47.404;18.836;2023-03-29T05:50:50;37.00;32.00;20.50
77692;PMS5003;66984;47.404;18.836;2023-03-29T05:51:55;36.25;31.00;21.00
77692;PMS5003;66984;47.404;18.836;2023-03-29T05:53:00;38.00;32.00;21.00
77692;PMS5003;66984;47.404;18.836;2023-03-29T05:54:03;39.00;32.75;21.00
77692;PMS5003;66984;47.404;18.836;2023-03-29T05:55:06;38.75;32.00;21.00
77692;PMS5003;66984;47.404;18.836;2023-03-29T05:56:10;39.50;32.00;20.00
77692;PMS5003;66984;47.404;18.836;2023-03-29T05:57:17;39.00;32.75;21.00
77692;PMS5003;66984;47.404;18.836;2023-03-29T05:58:20;40.00;33.00;21.00
77692;PMS5003;66984;47.404;18.836;2023-03-29T05:59:23;40.00;33.00;21.00
77692;PMS5003;66984;47.404;18.836;2023-03-29T06:00:29;39.00;32.50;21.00
77692;PMS5003;66984;47.404;18.836;2023-03-29T06:01:33;40.00;33.00;21.00
77692;PMS5003;66984;47.404;18.836;2023-03-29T06:02:37;39.50;33.00;21.00
77692;PMS5003;66984;47.404;18.836;2023-03-29T06:03:40;37.00;32.00;21.00
77692;PMS5003;66984;47.404;18.836;2023-03-29T06:04:43;39.50;33.25;21.00
77692;PMS5003;66984;47.404;18.836;2023-03-29T06:05:47;42.50;34.75;23.00
77692;PMS5003;66984;47.404;18.836;2023-03-29T06:06:51;46.75;36.75;23.00
77692;PMS5003;66984;47.404;18.836;2023-03-29T06:07:56;48.00;38.00;24.00
77692;PMS5003;66984;47.404;18.836;2023-03-29T06:09:00;48.00;38.00;24.50
77692;PMS5003;66984;47.404;18.836;2023-03-29T06:10:04;48.00;39.00;25.00
77692;PMS5003;66984;47.404;18.836;2023-03-29T06:11:09;48.00;39.00;25.00
77692;PMS5003;66984;47.404;18.836;2023-03-29T06:12:13;47.00;38.75;25.00
77692;PMS5003;66984;47.404;18.836;2023-03-29T06:13:15;48.50;39.00;25.00
77692;PMS5003;66984;47.404;18.836;2023-03-29T06:14:18;49.75;40.00;25.00
77692;PMS5003;66984;47.404;18.836;2023-03-29T06:15:21;50.00;40.00;26.00
77692;PMS5003;66984;47.404;18.836;2023-03-29T06:16:25;49.00;39.00;25.00
77692;PMS5003;66984;47.404;18.836;2023-03-29T06:17:28;49.25;39.00;26.00
77692;PMS5003;66984;47.404;18.836;2023-03-29T06:18:32;50.00;39.00;26.00
77692;PMS5003;66984;47.404;18.836;2023-03-29T06:19:35;49.50;39.25;25.00
77692;PMS5003;66984;47.404;18.836;2023-03-29T06:20:38;49.00;40.00;25.75
77692;PMS5003;66984;47.404;18.836;2023-03-29T06:21:41;48.00;39.00;25.00
77692;PMS5003;66984;47.404;18.836;2023-03-29T06:22:43;47.00;38.25;25.00
77692;PMS5003;66984;47.404;18.836;2023-03-29T06:23:49;46.50;37.00;24.50
77692;PMS5003;66984;47.404;18.836;2023-03-29T06:24:53;47.00;37.50;25.00
77692;PMS5003;66984;47.404;18.836;2023-03-29T06:25:56;45.00;36.00;23.00